Latest Weather Observations for Albury

IDN60801

Issued at 3:33 am EST Tuesday 26 July 2016 (issued every 30 minutes, with the page automatically refreshed every 10 minutes)

About weather observations | Map of weather stations | Latest weather observations for NSW | Other Formats
Station Details ID: 072160 Name: ALBURY AIRPORT AWS Lat: -36.07 Lon: 146.95 Height: 163.5 m
Data from the previous 72 hours. | See also: Recent months at Albury
Date/Time
EST
Temp
°C
App
Temp
°C
Dew
Point
°C
Rel
Hum
%
Delta-T
°C
Wind Press
QNH
hPa
Press
MSL
hPa
Rain since
9am
mm
Dir  Spd
km/h
Gust
km/h
Spd
kts
Gust
kts
26/03:30am 7.5 3.1 5.0 84 1.1 WNW 17 22 9 12 1013.3 1013.6 4.0
26/03:00am 7.2 2.8 5.0 86 1.0 WNW 17 24 9 13 1013.1 1013.4 4.0
26/02:30am 7.2 2.3 5.0 86 1.0 WNW 20 30 11 16 1013.1 1013.4 4.0
26/02:00am 7.8 2.6 5.6 86 1.0 WNW 22 32 12 17 1012.6 1012.9 4.0
26/01:30am 8.0 3.0 6.3 89 0.8 WNW 22 28 12 15 1012.1 1012.4 4.0
26/01:11am 7.9 3.9 6.8 93 0.5 WNW 17 26 9 14 1011.9 1012.2 4.0
26/01:00am 8.0 4.5 7.2 95 0.4 WNW 15 24 8 13 1012.0 1012.3 4.0
26/12:38am 8.0 3.5 7.1 94 0.4 W 20 30 11 16 1012.3 1012.6 3.6
26/12:30am 8.0 2.4 7.1 94 0.4 WNW 26 39 14 21 1012.2 1012.5 3.4
26/12:04am 8.4 3.2 7.3 93 0.5 NW 24 35 13 19 1011.8 1012.1 2.4
26/12:00am 8.5 3.3 7.1 91 0.7 NW 24 33 13 18 1011.8 1012.1 2.2
 
Date/Time
EST
Temp
°C
App
Temp
°C
Dew
Point
°C
Rel
Hum
%
Delta-T
°C
Wind Press
QNH
hPa
Press
MSL
hPa
Rain since
9am
mm
Dir  Spd
km/h
Gust
km/h
Spd
kts
Gust
kts
25/11:51pm 8.6 3.0 7.1 90 0.7 NW 26 37 14 20 1011.7 1012.0 2.2
25/11:30pm 8.8 1.8 6.8 87 0.9 NW 33 54 18 29 1011.4 1011.7 2.0
25/11:04pm 9.8 2.8 6.2 78 1.7 NNW 32 50 17 27 1010.9 1011.2 1.4
25/11:00pm 9.7 3.1 6.2 79 1.6 NNW 30 41 16 22 1011.0 1011.3 1.4
25/10:30pm 9.3 4.4 6.7 84 1.2 NNW 22 33 12 18 1011.4 1011.7 1.4
25/10:00pm 9.5 4.6 6.8 83 1.3 NNW 22 32 12 17 1011.3 1011.6 1.2
25/09:30pm 9.5 4.6 6.8 83 1.3 NNW 22 32 12 17 1011.4 1011.7 1.0
25/09:00pm 9.9 4.9 6.6 80 1.6 NNW 22 35 12 19 1011.6 1011.9 0.8
25/08:30pm 10.1 4.3 6.4 78 1.7 N 26 33 14 18 1011.4 1011.7 0.8
25/08:00pm 10.1 4.8 6.6 79 1.7 N 24 32 13 17 1012.1 1012.4 0.8
25/07:30pm 9.7 6.2 7.1 84 1.2 NNW 15 22 8 12 1012.5 1012.8 0.6
25/07:00pm 9.8 6.7 7.4 85 1.2 N 13 20 7 11 1012.4 1012.7 0.6
25/06:30pm 9.8 5.8 6.7 81 1.5 N 17 24 9 13 1012.3 1012.6 0.6
25/06:00pm 9.9 6.3 6.6 80 1.6 NNW 15 20 8 11 1012.3 1012.6 0.6
25/05:30pm 9.7 6.5 6.8 82 1.4 NNW 13 20 7 11 1012.1 1012.4 0.6
25/05:00pm 10.3 6.4 7.0 80 1.6 NNW 17 24 9 13 1012.1 1012.4 0.6
25/04:30pm 11.1 6.3 7.2 77 1.9 NW 22 32 12 17 1011.6 1011.9 0.6
25/04:11pm 11.2 6.4 7.3 77 1.9 NNW 22 32 12 17 1011.4 1011.7 0.6
25/04:00pm 11.4 7.2 7.5 77 1.9 NNW 19 28 10 15 1011.2 1011.5 0.6
25/03:39pm 11.0 7.6 7.7 80 1.6 NNW 15 26 8 14 1011.4 1011.7 0.6
25/03:30pm 10.9 8.0 8.0 82 1.4 NNW 13 20 7 11 1011.4 1011.7 0.6
25/03:06pm 10.7 6.8 8.5 86 1.1 NW 19 28 10 15 1011.9 1012.2 0.6
25/03:01pm 10.7 6.8 8.8 88 0.9 WNW 19 28 10 15 1011.9 1012.2 0.6
25/03:00pm 10.4 6.4 8.3 87 1.0 WNW 19 28 10 15 1011.9 1012.2 0.6
25/02:44pm 10.4 6.6 9.2 92 0.6 NW 19 28 10 15 1012.0 1012.3 0.6
25/02:30pm 10.6 7.0 8.4 86 1.1 NNW 17 24 9 13 1011.8 1012.1 0.4
25/02:16pm 10.7 7.3 9.1 90 0.8 NW 17 26 9 14 1011.8 1012.1 0.4
25/02:00pm 10.7 6.5 8.3 85 1.2 NNW 20 26 11 14 1011.9 1012.2 0.4
25/01:53pm 10.9 7.2 8.0 82 1.4 NNW 17 24 9 13 1011.8 1012.1 0.4
25/01:30pm 10.9 8.1 8.7 86 1.1 N 13 19 7 10 1011.9 1012.2 0.4
25/01:00pm 9.8 6.2 8.4 91 0.7 N 17 22 9 12 1012.5 1012.8 0.4
25/12:30pm 9.3 5.2 7.9 91 0.7 N 19 26 10 14 1012.9 1013.2 0.4
25/12:00pm 8.8 4.6 7.4 91 0.7 NNW 19 22 10 12 1013.5 1013.8 0.4
25/11:50am 8.8 4.7 7.7 93 0.5 NNW 19 26 10 14 1013.5 1013.8 0.4
25/11:30am 8.4 5.0 7.5 94 0.4 N 15 22 8 12 1013.6 1013.9 0.2
25/11:29am 8.3 4.8 7.2 93 0.5 N 15 22 8 12 1013.6 1013.9 0.2
25/11:22am 8.6 5.6 7.7 94 0.4 N 13 20 7 11 1013.7 1014.0 0.2
25/11:00am 8.1 4.6 7.2 94 0.4 NNW 15 20 8 11 1013.9 1014.2 0.2
25/10:56am 8.2 5.1 7.3 94 0.4 NNW 13 20 7 11 1013.9 1014.2 0.2
25/10:54am 7.9 4.3 6.8 93 0.5 NNW 15 20 8 11 1013.9 1014.2 0.2
25/10:30am 7.8 3.7 6.4 91 0.6 NNW 17 20 9 11 1013.8 1014.1 0.0
25/10:28am 8.0 4.0 6.5 90 0.7 NNW 17 20 9 11 1013.8 1014.1 0.0
25/10:00am 9.3 6.0 6.6 83 1.3 NNW 13 20 7 11 1013.4 1013.7 0.0
25/09:30am 8.3 4.6 6.3 87 0.9 NW 15 24 8 13 1013.5 1013.8 0.0
25/09:00am 7.7 3.9 6.0 89 0.8 WNW 15 24 8 13 1013.2 1013.5 12.0
25/08:42am 7.5 3.7 5.8 89 0.8 WNW 15 19 8 10 1012.9 1013.2 12.0
25/08:30am 7.2 3.0 5.7 90 0.7 WNW 17 24 9 13 1012.9 1013.2 12.0
25/08:24am 7.4 3.2 5.7 89 0.8 WNW 17 24 9 13 1012.9 1013.2 12.0
25/08:00am 6.7 2.5 5.5 92 0.5 WNW 17 22 9 12 1012.8 1013.1 12.0
25/07:57am 6.8 2.6 5.6 92 0.5 WNW 17 22 9 12 1012.7 1013.0 12.0
25/07:30am 6.8 2.2 5.6 92 0.5 WNW 19 26 10 14 1012.1 1012.4 12.0
25/07:22am 6.5 1.8 5.3 92 0.5 WNW 19 28 10 15 1012.0 1012.3 12.0
25/07:00am 6.9 2.7 5.8 93 0.5 WNW 17 26 9 14 1011.5 1011.8 12.0
25/06:30am 6.9 2.8 6.2 95 0.3 WNW 17 26 9 14 1010.9 1011.2 12.0
25/06:00am 6.9 2.5 6.5 97 0.2 WNW 19 26 10 14 1010.4 1010.7 12.0
25/05:54am 6.9 2.9 6.6 98 0.1 WNW 17 26 9 14 1010.3 1010.6 12.0
25/05:30am 6.8 2.8 6.8 100 0.0 WNW 17 22 9 12 1010.0 1010.3 12.0
25/05:00am 6.7 3.8 6.7 100 0.0 WNW 11 17 6 9 1009.5 1009.8 11.8
25/04:30am 6.8 3.2 6.8 100 0.0 NW 15 24 8 13 1009.1 1009.4 11.8
25/04:00am 6.3 4.3 6.3 100 0.0 NNE 6 9 3 5 1008.8 1009.1 11.8
25/03:30am 6.2 3.6 6.1 99 0.0 N 9 15 5 8 1008.8 1009.1 11.4
25/03:00am 6.4 3.4 6.0 97 0.2 NW 11 15 6 8 1009.0 1009.3 11.0
25/02:50am 6.6 3.2 5.9 95 0.3 NNW 13 19 7 10 1008.9 1009.2 10.8
25/02:30am 6.9 3.1 5.8 93 0.5 NW 15 24 8 13 1009.0 1009.3 10.6
25/02:00am 7.1 3.3 5.9 92 0.5 NW 15 22 8 12 1009.1 1009.4 10.2
25/01:34am 7.2 3.5 6.3 94 0.4 NW 15 20 8 11 1009.2 1009.6 10.0
25/01:30am 7.2 3.8 6.1 93 0.5 NW 13 20 7 11 1009.2 1009.6 10.0
25/01:15am 7.2 4.2 5.8 91 0.6 NNW 11 17 6 9 1009.1 1009.4 9.6
25/01:00am 7.3 3.5 5.8 90 0.7 NNW 15 20 8 11 1009.2 1009.6 9.6
25/12:30am 7.3 4.3 5.9 91 0.6 NW 11 19 6 10 1009.7 1010.0 9.6
25/12:15am 7.3 3.5 5.9 91 0.6 NW 15 19 8 10 1009.7 1010.0 9.6
25/12:00am 7.3 3.9 5.9 91 0.6 NW 13 19 7 10 1009.8 1010.1 9.6
 
Date/Time
EST
Temp
°C
App
Temp
°C
Dew
Point
°C
Rel
Hum
%
Delta-T
°C
Wind Press
QNH
hPa
Press
MSL
hPa
Rain since
9am
mm
Dir  Spd
km/h
Gust
km/h
Spd
kts
Gust
kts
24/11:54pm 7.3 4.3 6.1 92 0.5 NW 11 19 6 10 1009.8 1010.1 9.6
24/11:30pm 7.1 2.9 5.7 91 0.6 WNW 17 26 9 14 1009.7 1010.0 9.6
24/11:00pm 7.2 3.9 6.6 96 0.3 WNW 13 22 7 12 1009.5 1009.8 9.4
24/10:57pm 7.1 4.2 6.7 97 0.2 WNW 11 22 6 12 1009.5 1009.8 9.4
24/10:42pm 6.6 4.0 6.2 97 0.2 W 9 13 5 7 1009.4 1009.7 9.4
24/10:30pm 7.0 3.3 6.4 96 0.3 WNW 15 20 8 11 1009.4 1009.7 9.4
24/10:00pm 7.1 3.9 7.0 99 0.0 NNW 13 20 7 11 1009.5 1009.8 8.8
24/09:58pm 7.1 4.0 7.1 100 0.0 NNW 13 20 7 11 1009.5 1009.8 8.6
24/09:57pm 7.1 4.0 7.1 100 0.0 NNW 13 20 7 11 1009.5 1009.8 8.6
24/09:46pm 6.5 3.6 6.5 100 0.0 N 11 15 6 8 1009.5 1009.8 8.2
24/09:30pm 6.2 4.2 6.2 100 0.0 E 6 9 3 5 1009.2 1009.6 7.2
24/09:00pm 6.2 4.2 6.2 100 0.0 ENE 6 9 3 5 1009.6 1009.9 7.0
24/08:30pm 6.2 4.0 6.2 100 0.0 NNE 7 11 4 6 1009.9 1010.2 7.0
24/08:00pm 6.3 5.1 6.3 100 0.0 ENE 2 7 1 4 1010.0 1010.3 7.0
24/07:30pm 6.1 4.4 6.1 100 0.0 NE 4 6 2 3 1010.2 1010.5 7.0
24/07:00pm 6.7 4.8 6.7 100 0.0 ENE 6 7 3 4 1009.9 1010.2 7.0
24/06:49pm 6.7 3.8 6.7 100 0.0 SE 11 17 6 9 1009.6 1009.9 7.0
24/06:40pm 6.8 2.8 6.8 100 0.0 SSE 17 22 9 12 1009.5 1009.8 7.0
24/06:30pm 6.7 2.7 6.6 99 0.0 WSW 17 26 9 14 1009.7 1010.0 6.8
24/06:09pm 6.8 4.7 6.7 99 0.0 S 7 13 4 7 1009.7 1010.0 5.0
24/06:00pm 6.9 4.8 6.6 98 0.1 SSE 7 9 4 5 1009.5 1009.8 4.4
24/05:49pm 6.9 4.8 6.5 97 0.2 ESE 7 9 4 5 1009.6 1009.9 4.4
24/05:30pm 6.9 4.3 6.3 96 0.3 ESE 9 11 5 6 1009.6 1009.9 4.2
24/05:00pm 7.0 4.4 6.3 95 0.3 ESE 9 11 5 6 1010.0 1010.3 4.2
24/04:42pm 7.2 5.0 6.1 93 0.5 ENE 7 11 4 6 1010.0 1010.3 4.2
24/04:30pm 7.1 5.7 5.6 90 0.7 N 2 6 1 3 1010.0 1010.3 4.2
24/04:00pm 7.1 4.1 6.2 94 0.4 W 11 17 6 9 1010.6 1010.9 3.0
24/03:30pm 7.7 3.5 5.8 88 0.9 NNW 17 24 9 13 1010.4 1010.7 1.0
24/03:00pm 8.7 5.1 4.9 77 1.7 N 13 20 7 11 1010.4 1010.7 0.2
24/02:30pm 9.8 5.7 4.6 70 2.3 NNE 15 20 8 11 1010.7 1011.0 0.0
24/02:00pm 8.7 5.3 4.1 73 2.0 NNE 11 17 6 9 1011.4 1011.7 0.0
24/01:30pm 8.8 4.6 4.0 72 2.1 NNE 15 20 8 11 1011.8 1012.1 0.0
24/01:00pm 8.7 4.0 3.3 69 2.3 N 17 22 9 12 1012.5 1012.8 0.0
24/12:30pm 8.7 5.7 4.3 74 1.9 NNE 9 13 5 7 1013.1 1013.4 0.0
24/12:00pm 7.7 3.9 3.9 77 1.7 NE 13 17 7 9 1013.8 1014.1 0.0
24/11:30am 7.0 2.7 3.4 78 1.5 NNE 15 20 8 11 1014.0 1014.3 0.0
24/11:00am 6.5 2.2 3.3 80 1.4 NNE 15 20 8 11 1014.7 1015.1 0.0
24/10:30am 6.2 1.5 3.2 81 1.3 NE 17 22 9 12 1014.7 1015.1 0.0
24/10:00am 5.6 1.2 2.6 81 1.2 NE 15 19 8 10 1015.1 1015.5 0.0
24/09:30am 5.3 1.2 2.3 81 1.2 NE 13 15 7 8 1015.0 1015.4 0.0
24/09:00am 4.7 1.4 2.6 86 0.9 NE 9 13 5 7 1015.1 1015.5 0.6
24/08:30am 2.9 0.2 2.8 99 0.0 ENE 6 7 3 4 1015.3 1015.7 0.6
24/08:00am 0.3 -2.0 0.2 99 0.0 NE 2 6 1 3 1015.3 1015.7 0.6
24/07:30am -0.1 -2.1 -0.2 99 0.0 CALM 0 0 0 0 1014.9 1015.3 0.6
24/07:00am 0.1 -1.9 0.0 99 0.0 CALM 0 0 0 0 1014.6 1015.0 0.6
24/06:30am 0.2 -1.8 0.1 99 0.0 CALM 0 0 0 0 1014.6 1015.0 0.6
24/06:00am 0.1 -1.9 0.0 99 0.0 CALM 0 0 0 0 1014.3 1014.7 0.6
24/05:30am 0.0 -2.0 -0.1 99 0.0 CALM 0 0 0 0 1014.1 1014.4 0.6
24/05:00am 0.3 -2.1 0.0 98 0.1 N 2 6 1 3 1014.1 1014.4 0.6
24/04:30am 0.4 -2.0 0.0 97 0.1 N 2 6 1 3 1014.3 1014.7 0.6
24/04:00am 0.9 -1.4 0.5 97 0.1 N 2 6 1 3 1014.7 1015.1 0.6
24/03:30am 1.0 -0.9 0.4 96 0.2 CALM 0 0 0 0 1014.6 1015.0 0.6
24/03:00am 1.3 -0.6 0.6 95 0.3 CALM 0 0 0 0 1014.5 1014.9 0.6
24/02:30am 1.6 -1.4 0.7 94 0.3 SE 6 6 3 3 1014.5 1014.9 0.6
24/02:00am 1.7 -1.4 0.4 91 0.5 NNE 6 7 3 4 1014.6 1015.0 0.6
24/01:30am 2.8 -0.2 0.9 87 0.7 NE 6 6 3 3 1014.6 1015.0 0.6
24/01:00am 3.8 0.3 1.2 83 1.0 NW 9 9 5 5 1014.7 1015.1 0.6
24/12:30am 4.3 1.2 1.3 81 1.2 NW 7 9 4 5 1014.8 1015.2 0.6
24/12:00am 4.3 0.4 1.0 79 1.3 NW 11 13 6 7 1014.8 1015.2 0.6
 
Date/Time
EST
Temp
°C
App
Temp
°C
Dew
Point
°C
Rel
Hum
%
Delta-T
°C
Wind Press
QNH
hPa
Press
MSL
hPa
Rain since
9am
mm
Dir  Spd
km/h
Gust
km/h
Spd
kts
Gust
kts
23/11:30pm 5.1 1.2 1.2 76 1.5 NW 11 13 6 7 1014.8 1015.2 0.6
23/11:00pm 4.7 1.1 0.8 76 1.5 W 9 17 5 9 1014.8 1015.2 0.6
23/10:30pm 5.7 2.2 1.2 73 1.8 NW 9 11 5 6 1014.7 1015.1 0.6
23/10:00pm 6.2 2.4 1.5 72 1.9 WNW 11 13 6 7 1014.5 1014.9 0.6
23/09:30pm 6.5 3.4 1.6 71 2.0 NNW 7 11 4 6 1014.4 1014.8 0.6
23/09:00pm 7.0 3.2 1.5 68 2.2 WNW 11 17 6 9 1014.3 1014.7 0.6
23/08:30pm 7.3 3.1 1.8 68 2.3 WNW 13 17 7 9 1013.9 1014.2 0.6
23/08:00pm 7.9 3.0 2.0 66 2.5 WNW 17 22 9 12 1013.6 1013.9 0.6
23/07:30pm 8.1 2.8 1.9 65 2.6 WNW 19 24 10 13 1013.3 1013.6 0.6
23/07:00pm 8.2 3.7 2.0 65 2.6 NW 15 19 8 10 1012.9 1013.2 0.6
23/06:30pm 8.2 3.6 1.8 64 2.7 NW 15 20 8 11 1012.4 1012.7 0.6
23/06:00pm 8.3 3.0 1.7 63 2.7 WNW 19 28 10 15 1012.1 1012.4 0.6
23/05:30pm 8.7 2.9 2.5 65 2.6 WNW 22 30 12 16 1011.7 1012.0 0.6
23/05:00pm 8.7 2.5 2.3 64 2.7 W 24 35 13 19 1011.2 1011.5 0.6
23/04:30pm 9.1 2.4 1.3 58 3.2 W 26 37 14 20 1010.7 1011.0 0.6
23/04:00pm 8.7 3.5 2.3 64 2.7 W 19 32 10 17 1010.1 1010.4 0.6
23/03:30pm 9.7 4.4 3.0 63 2.9 W 20 24 11 13 1009.6 1009.9 0.6
23/03:00pm 8.4 1.5 2.6 67 2.5 WSW 28 43 15 23 1009.5 1009.8 0.6
23/02:34pm 9.7 2.5 0.9 54 3.6 W 28 46 15 25 1008.7 1009.0 0.6
23/02:30pm 10.7 3.7 1.8 54 3.8 W 28 41 15 22 1008.7 1009.0 0.6
23/02:10pm 9.9 3.8 2.5 60 3.2 W 24 33 13 18 1008.7 1009.0 0.6
23/02:00pm 9.7 3.0 3.4 65 2.8 W 28 37 15 20 1008.6 1008.9 0.6
23/01:51pm 9.2 3.1 2.8 64 2.8 W 24 39 13 21 1008.6 1008.9 0.6
23/01:30pm 8.6 2.0 2.2 64 2.7 W 26 43 14 23 1008.5 1008.8 0.6
23/01:00pm 8.0 0.2 1.8 65 2.6 W 32 44 17 24 1008.5 1008.8 0.6
23/12:30pm 9.3 2.2 1.5 58 3.3 WSW 28 44 15 24 1007.8 1008.1 0.6
23/12:10pm 9.5 1.1 1.7 58 3.3 WSW 35 56 19 30 1007.8 1008.1 0.6
23/12:00pm 9.6 2.3 2.7 62 3.0 WSW 30 44 16 24 1007.7 1008.0 0.6
23/11:30am 8.0 2.2 4.4 78 1.6 WSW 24 44 13 24 1007.7 1008.0 0.6
23/11:12am 6.4 -0.5 4.4 87 0.9 SW 30 48 16 26 1007.6 1007.9 0.6
23/11:00am 7.2 -0.1 2.7 73 1.9 WSW 30 44 16 24 1007.2 1007.5 0.0
23/10:30am 8.9 2.1 5.1 77 1.7 W 30 48 16 26 1006.3 1006.6 0.0
23/10:25am 8.9 2.1 4.9 76 1.8 W 30 48 16 26 1006.3 1006.6 0.0
23/10:16am 8.9 2.1 5.3 78 1.6 W 30 43 16 23 1006.1 1006.4 0.0
23/10:00am 8.7 3.1 5.6 81 1.4 W 24 35 13 19 1005.8 1006.1 0.0
23/09:42am 8.6 2.3 5.5 81 1.4 WNW 28 46 15 25 1005.5 1005.8 0.0
23/09:35am 8.5 3.3 5.6 82 1.3 W 22 32 12 17 1005.4 1005.7 0.0
23/09:34am 8.5 3.4 5.8 83 1.2 W 22 32 12 17 1005.4 1005.7 0.0
23/09:30am 8.5 3.3 5.6 82 1.3 W 22 35 12 19 1005.3 1005.6 0.0
23/09:00am 8.5 2.9 5.6 82 1.3 W 24 37 13 20 1004.9 1005.2 24.2
23/08:39am 8.0 2.1 6.0 87 0.9 W 26 41 14 22 1004.5 1004.8 24.2
23/08:30am 7.8 2.3 5.9 88 0.9 WNW 24 37 13 20 1004.2 1004.5 24.2
23/08:00am 7.6 1.8 6.1 90 0.7 WNW 26 37 14 20 1004.0 1004.2 24.2
23/07:34am 7.2 0.9 5.8 91 0.6 WNW 28 37 15 20 1003.6 1003.8 24.2
23/07:30am 7.3 1.1 6.1 92 0.5 WNW 28 37 15 20 1003.6 1003.8 24.2
23/07:29am 7.2 1.0 6.0 92 0.5 WNW 28 37 15 20 1003.6 1003.8 24.2
23/07:07am 7.3 1.1 6.2 93 0.5 W 28 39 15 21 1003.2 1003.4 24.0
23/07:01am 7.3 1.8 6.1 92 0.5 WNW 24 39 13 21 1002.9 1003.2 24.0
23/07:00am 7.3 2.2 6.2 93 0.5 WNW 22 33 12 18 1002.9 1003.2 24.0
23/06:49am 7.4 2.0 6.3 93 0.5 WNW 24 37 13 20 1002.7 1003.0 23.8
23/06:44am 7.4 1.5 6.0 91 0.6 WNW 26 37 14 20 1002.6 1002.9 23.8
23/06:30am 7.8 1.9 5.8 87 0.9 WNW 26 41 14 22 1002.3 1002.6 23.6
23/06:00am 8.0 1.3 5.5 84 1.1 W 30 44 16 24 1001.6 1001.9 23.6
23/05:43am 8.2 1.9 5.7 84 1.1 WNW 28 43 15 23 1001.5 1001.8 23.4
23/05:33am 8.1 1.8 5.7 85 1.1 WNW 28 44 15 24 1001.2 1001.5 23.4
23/05:30am 8.1 1.4 5.6 84 1.1 WNW 30 44 16 24 1001.2 1001.5 23.4
23/05:00am 8.7 1.5 5.1 78 1.6 WNW 32 48 17 26 1000.8 1001.1 23.2
23/04:52am 8.8 2.4 5.0 77 1.7 WNW 28 48 15 26 1000.5 1000.8 23.2
23/04:30am 8.8 2.4 5.2 78 1.6 WNW 28 37 15 20 1000.2 1000.5 23.2
23/04:00am 9.1 2.8 5.7 79 1.6 WNW 28 43 15 23 999.9 1000.2 23.2
23/03:44am 8.7 2.5 6.2 84 1.2 W 28 46 15 25 999.8 1000.1 23.2

Other Formats:

Comma delimited format used in spreadsheet applications
http://www.bom.gov.au/fwo/IDN60801/IDN60801.95896.axf

JavaScript Object Notation format (JSON) in row-major order
http://www.bom.gov.au/fwo/IDN60801/IDN60801.95896.json